createdAt,value
2023-01-30T00:00:06.369Z,102579.28
2023-01-30T00:02:35.792Z,102569.41
2023-01-30T00:05:11.295Z,102573.16
2023-01-30T00:07:40.418Z,102570.91
2023-01-30T00:10:10.717Z,102575.06
2023-01-30T00:12:40.718Z,102574.22
2023-01-30T00:15:12.018Z,102576.75
2023-01-30T00:17:41.439Z,102581.00
2023-01-30T00:20:11.047Z,102579.84
2023-01-30T00:22:49.308Z,102584.44
2023-01-30T00:25:20.732Z,102577.72
2023-01-30T00:27:49.504Z,102570.38
2023-01-30T00:30:20.151Z,102576.00
2023-01-30T00:32:49.694Z,102572.28
2023-01-30T00:35:19.542Z,102575.56
2023-01-30T00:37:50.136Z,102574.94
2023-01-30T00:40:21.058Z,102564.19
2023-01-30T00:43:21.565Z,102562.50
2023-01-30T00:46:07.412Z,102536.69
2023-01-30T00:48:36.949Z,102548.03
2023-01-30T00:51:05.854Z,102538.47
2023-01-30T00:53:36.177Z,102530.63
2023-01-30T00:56:04.348Z,102538.88
2023-01-30T00:58:33.751Z,102530.41
2023-01-30T01:01:01.845Z,102515.31
2023-01-30T01:03:32.405Z,102517.13
2023-01-30T01:06:04.519Z,102538.06
2023-01-30T01:08:33.084Z,102532.44
2023-01-30T01:11:01.061Z,102532.13
2023-01-30T01:13:29.237Z,102538.81
2023-01-30T01:15:57.289Z,102526.56
2023-01-30T01:18:25.431Z,102503.31
2023-01-30T01:20:53.373Z,102514.69
2023-01-30T01:23:22.881Z,102532.13
2023-01-30T01:25:51.274Z,102529.56
2023-01-30T01:28:22.275Z,102531.03
2023-01-30T01:30:50.487Z,102536.34
2023-01-30T01:33:18.722Z,102521.38
2023-01-30T01:35:47.710Z,102521.59
2023-01-30T01:38:17.218Z,102529.22
2023-01-30T01:41:02.493Z,102522.84
2023-01-30T01:43:34.400Z,102526.25
2023-01-30T01:46:04.093Z,102526.38
2023-01-30T01:48:33.695Z,102522.53
2023-01-30T01:51:04.366Z,102500.22
2023-01-30T01:53:35.078Z,102510.63
2023-01-30T01:56:04.775Z,102520.19
2023-01-30T01:58:35.562Z,102506.81
2023-01-30T02:01:03.760Z,102527.63
2023-01-30T02:03:36.323Z,102523.38
2023-01-30T02:06:04.636Z,102517.66
2023-01-30T02:08:34.791Z,102511.38
2023-01-30T02:11:09.776Z,102513.81
2023-01-30T02:13:38.553Z,102521.25
2023-01-30T02:16:07.648Z,102520.00
2023-01-30T02:18:36.325Z,102527.13
2023-01-30T02:21:45.768Z,102529.34
2023-01-30T02:24:35.232Z,102534.00
2023-01-30T02:27:40.272Z,102539.97
2023-01-30T02:30:38.595Z,102540.91
2023-01-30T02:33:11.705Z,102542.09
2023-01-30T02:35:43.801Z,102538.03
2023-01-30T02:38:19.974Z,102542.69
2023-01-30T02:40:55.646Z,102538.47
2023-01-30T02:43:27.627Z,102539.44
2023-01-30T02:46:08.759Z,102529.41
2023-01-30T02:48:39.096Z,102526.69
2023-01-30T02:51:08.924Z,102533.91
2023-01-30T02:53:37.605Z,102521.44
2023-01-30T02:56:07.639Z,102524.44
2023-01-30T02:58:37.310Z,102535.47
2023-01-30T03:01:32.474Z,102541.22
2023-01-30T03:04:27.427Z,102542.50
2023-01-30T03:07:07.694Z,102536.06
2023-01-30T03:09:40.218Z,102541.75
2023-01-30T03:12:10.312Z,102522.53
2023-01-30T03:14:42.182Z,102534.81
2023-01-30T03:17:12.200Z,102529.09
2023-01-30T03:19:40.391Z,102544.22
2023-01-30T03:22:08.386Z,102552.31
2023-01-30T03:24:36.416Z,102552.06
2023-01-30T03:27:06.984Z,102551.44
2023-01-30T03:29:35.233Z,102535.09
2023-01-30T03:32:03.168Z,102553.97
2023-01-30T03:34:33.017Z,102556.78
2023-01-30T03:37:01.084Z,102552.72
2023-01-30T03:39:29.132Z,102561.22
2023-01-30T03:41:57.223Z,102576.09
2023-01-30T03:44:28.596Z,102573.78
2023-01-30T03:46:56.785Z,102576.09
2023-01-30T03:49:26.155Z,102564.84
2023-01-30T03:51:55.662Z,102574.34
2023-01-30T03:54:23.793Z,102580.06
2023-01-30T03:56:51.880Z,102590.25
2023-01-30T03:59:20.195Z,102594.59
2023-01-30T04:01:54.504Z,102576.94
2023-01-30T04:04:26.392Z,102606.50
2023-01-30T04:06:55.825Z,102613.91
2023-01-30T04:09:28.122Z,102617.09
2023-01-30T04:11:57.051Z,102626.34
2023-01-30T04:14:26.390Z,102611.56
2023-01-30T04:17:13.095Z,102621.34
2023-01-30T04:20:18.352Z,102630.25
2023-01-30T04:22:52.482Z,102618.91
2023-01-30T04:25:21.375Z,102630.88
2023-01-30T04:27:52.396Z,102629.00
2023-01-30T04:30:25.022Z,102625.25
2023-01-30T04:32:59.097Z,102636.81
2023-01-30T04:35:27.379Z,102647.69
2023-01-30T04:38:00.258Z,102641.94
2023-01-30T04:40:29.100Z,102640.44
2023-01-30T04:42:58.066Z,102643.59
2023-01-30T04:45:46.331Z,102629.66
2023-01-30T04:48:14.633Z,102643.69
2023-01-30T04:50:44.357Z,102649.94
2023-01-30T04:53:15.083Z,102647.19
2023-01-30T04:55:43.577Z,102652.59
2023-01-30T04:58:11.531Z,102654.28
2023-01-30T05:00:39.829Z,102641.81
2023-01-30T05:03:10.134Z,102638.88
2023-01-30T05:05:38.136Z,102653.66
2023-01-30T05:08:12.591Z,102656.31
2023-01-30T05:10:44.082Z,102660.75
2023-01-30T05:13:12.101Z,102667.78
2023-01-30T05:15:42.746Z,102671.38
2023-01-30T05:18:10.715Z,102678.75
2023-01-30T05:20:39.820Z,102687.47
2023-01-30T05:23:08.137Z,102685.75
2023-01-30T05:25:36.706Z,102690.50
2023-01-30T05:28:06.342Z,102691.06
2023-01-30T05:30:34.568Z,102704.59
2023-01-30T05:33:02.621Z,102716.25
2023-01-30T05:35:30.792Z,102722.22
2023-01-30T05:37:59.520Z,102723.47
2023-01-30T05:40:29.086Z,102731.44
2023-01-30T05:42:57.120Z,102720.16
2023-01-30T05:45:26.812Z,102729.72
2023-01-30T05:47:58.445Z,102727.25
2023-01-30T05:50:28.772Z,102731.78
2023-01-30T05:52:56.734Z,102726.47
2023-01-30T05:55:24.786Z,102739.88
2023-01-30T05:57:56.715Z,102717.97
2023-01-30T06:00:28.380Z,102734.75
2023-01-30T06:02:56.868Z,102736.16
2023-01-30T06:05:25.146Z,102733.50
2023-01-30T06:08:00.762Z,102734.09
2023-01-30T06:10:28.777Z,102751.34
2023-01-30T06:12:56.795Z,102753.00
2023-01-30T06:15:26.859Z,102743.16
2023-01-30T06:17:56.142Z,102749.78
2023-01-30T06:20:25.589Z,102735.97
2023-01-30T06:22:53.554Z,102761.94
2023-01-30T06:25:21.624Z,102755.09
2023-01-30T06:27:49.605Z,102748.19
2023-01-30T06:30:18.285Z,102755.47
2023-01-30T06:32:51.377Z,102755.88
2023-01-30T06:35:19.708Z,102748.66
2023-01-30T06:37:47.976Z,102763.91
2023-01-30T06:40:16.118Z,102766.25
2023-01-30T06:42:54.475Z,102758.31
2023-01-30T06:45:22.534Z,102761.16
2023-01-30T06:47:53.062Z,102757.19
2023-01-30T06:50:23.323Z,102754.91
2023-01-30T06:52:51.732Z,102752.97
2023-01-30T06:55:21.202Z,102764.03
2023-01-30T06:57:49.544Z,102736.59
2023-01-30T07:00:18.701Z,102771.28
2023-01-30T07:02:47.057Z,102774.31
2023-01-30T07:05:16.992Z,102781.75
2023-01-30T07:07:45.229Z,102781.91
2023-01-30T07:10:13.162Z,102760.72
2023-01-30T07:12:43.246Z,102790.16
2023-01-30T07:15:12.781Z,102789.53
2023-01-30T07:17:41.346Z,102784.84
2023-01-30T07:20:11.443Z,102790.84
2023-01-30T07:22:40.966Z,102782.28
2023-01-30T07:25:09.629Z,102793.72
2023-01-30T07:27:39.571Z,102798.78
2023-01-30T07:30:08.529Z,102806.72
2023-01-30T07:32:36.451Z,102778.19
2023-01-30T07:35:06.003Z,102799.88
2023-01-30T07:37:34.193Z,102811.75
2023-01-30T07:40:03.637Z,102817.81
2023-01-30T07:42:31.659Z,102823.78
2023-01-30T07:44:59.695Z,102821.22
2023-01-30T07:47:27.716Z,102833.00
2023-01-30T07:49:55.681Z,102836.44
2023-01-30T07:52:31.129Z,102839.69
2023-01-30T07:55:01.686Z,102845.56
2023-01-30T07:57:33.650Z,102850.72
2023-01-30T08:00:03.241Z,102845.06
2023-01-30T08:02:51.202Z,102843.19
2023-01-30T08:05:19.602Z,102841.88
2023-01-30T08:07:48.637Z,102848.22
2023-01-30T08:10:17.513Z,102855.88
2023-01-30T08:12:50.857Z,102847.84
2023-01-30T08:15:20.651Z,102818.84
2023-01-30T08:17:56.719Z,102846.06
2023-01-30T08:20:24.870Z,102845.47
2023-01-30T08:22:52.807Z,102836.75
2023-01-30T08:25:21.016Z,102847.34
2023-01-30T08:27:50.434Z,102835.25
2023-01-30T08:30:19.868Z,102845.13
2023-01-30T08:32:48.148Z,102831.75
2023-01-30T08:35:18.524Z,102848.66
2023-01-30T08:37:48.876Z,102847.78
2023-01-30T08:40:17.527Z,102857.44
2023-01-30T08:42:46.611Z,102858.47
2023-01-30T08:45:16.396Z,102853.28
2023-01-30T08:47:47.574Z,102857.38
2023-01-30T08:50:17.838Z,102858.16
2023-01-30T08:52:46.824Z,102866.69
2023-01-30T08:55:14.869Z,102862.22
2023-01-30T08:57:42.971Z,102864.81
2023-01-30T09:00:13.119Z,102858.53
2023-01-30T09:02:49.992Z,102836.41
2023-01-30T09:05:18.112Z,102854.00
2023-01-30T09:07:47.629Z,102870.50
2023-01-30T09:10:18.328Z,102885.66
2023-01-30T09:12:47.820Z,102881.28
2023-01-30T09:15:15.749Z,102889.66
2023-01-30T09:17:45.399Z,102878.56
2023-01-30T09:20:13.745Z,102888.50
2023-01-30T09:22:41.699Z,102902.25
2023-01-30T09:25:10.594Z,102888.16
2023-01-30T09:27:38.555Z,102872.44
2023-01-30T09:30:07.905Z,102880.81
2023-01-30T09:32:37.603Z,102874.66
2023-01-30T09:35:09.986Z,102865.44
2023-01-30T09:37:45.056Z,102873.59
2023-01-30T09:40:16.156Z,102893.13
2023-01-30T09:43:02.836Z,102911.31
2023-01-30T09:45:52.002Z,102927.66
2023-01-30T09:48:24.919Z,102937.91
2023-01-30T09:51:16.225Z,102919.75
2023-01-30T09:54:01.231Z,102913.88
2023-01-30T09:56:29.689Z,102935.31
2023-01-30T09:58:58.843Z,102934.25
2023-01-30T10:01:31.629Z,102938.56
2023-01-30T10:04:06.575Z,102923.59
2023-01-30T10:06:38.084Z,102938.56
2023-01-30T10:09:09.370Z,102954.91
2023-01-30T10:11:45.218Z,102954.91
2023-01-30T10:14:20.768Z,102962.84
2023-01-30T10:16:55.077Z,102967.41
2023-01-30T10:19:44.227Z,102981.16
2023-01-30T10:22:19.066Z,102985.59
2023-01-30T10:24:53.034Z,102970.91
2023-01-30T10:27:22.126Z,102982.25
2023-01-30T10:29:56.389Z,102981.97
2023-01-30T10:32:34.191Z,102990.97
2023-01-30T10:35:07.063Z,102980.72
2023-01-30T10:37:48.224Z,102992.53
2023-01-30T10:40:20.006Z,102983.31
2023-01-30T10:42:52.271Z,102988.13
2023-01-30T10:45:29.001Z,102984.91
2023-01-30T10:48:02.183Z,102990.09
2023-01-30T10:50:38.185Z,102993.63
2023-01-30T10:53:15.147Z,102985.09
2023-01-30T10:55:48.120Z,102993.81
2023-01-30T10:58:20.786Z,103004.63
2023-01-30T11:00:50.839Z,103012.50
2023-01-30T11:03:22.710Z,103024.91
2023-01-30T11:05:51.708Z,103021.22
2023-01-30T11:08:30.417Z,103022.75
2023-01-30T11:11:01.430Z,103006.69
2023-01-30T11:13:36.485Z,103022.09
2023-01-30T11:16:08.458Z,103029.59
2023-01-30T11:21:43.838Z,103016.97
2023-01-30T11:24:17.798Z,103025.59
2023-01-30T11:27:01.465Z,103020.09
2023-01-30T11:29:32.929Z,103022.28
2023-01-30T11:32:03.955Z,103026.28
2023-01-30T11:34:32.299Z,103027.44
2023-01-30T11:37:17.307Z,103023.53
2023-01-30T11:39:52.630Z,103008.06
2023-01-30T11:42:23.289Z,103000.47
2023-01-30T11:45:17.610Z,103006.34
2023-01-30T11:47:57.618Z,102988.53
2023-01-30T11:50:33.352Z,103021.91
2023-01-30T11:53:05.010Z,103013.00
2023-01-30T11:55:37.492Z,103010.56
2023-01-30T11:58:07.527Z,103017.00
2023-01-30T12:00:39.638Z,103019.47
2023-01-30T12:03:11.854Z,103018.06
2023-01-30T12:05:42.965Z,102992.34
2023-01-30T12:08:14.637Z,102998.59
2023-01-30T12:10:47.599Z,102981.09
2023-01-30T12:13:19.188Z,102981.09
2023-01-30T12:15:49.776Z,102996.09
2023-01-30T12:18:20.179Z,102999.28
2023-01-30T12:20:50.744Z,103001.69
2023-01-30T12:23:22.481Z,102992.66
2023-01-30T12:26:01.292Z,102990.38
2023-01-30T12:28:42.523Z,103000.59
2023-01-30T12:31:16.453Z,102988.66
2023-01-30T12:33:44.413Z,102982.63
2023-01-30T12:36:20.313Z,102977.19
2023-01-30T12:38:59.201Z,102975.41
2023-01-30T12:42:04.623Z,102987.56
2023-01-30T12:44:40.389Z,102968.97
2023-01-30T12:47:20.961Z,102983.00
2023-01-30T12:49:59.750Z,102987.16
2023-01-30T12:52:57.589Z,102969.31
2023-01-30T12:55:36.770Z,102967.06
2023-01-30T12:58:08.283Z,102947.31
2023-01-30T13:00:47.673Z,102938.81
2023-01-30T13:03:24.062Z,102962.69
2023-01-30T13:05:57.917Z,102955.94
2023-01-30T13:08:47.831Z,102949.38
2023-01-30T13:11:29.088Z,102951.38
2023-01-30T13:14:07.594Z,102954.47
2023-01-30T13:16:47.220Z,102929.28
2023-01-30T13:19:21.138Z,102930.41
2023-01-30T13:21:54.964Z,102932.69
2023-01-30T13:24:26.717Z,102932.50
2023-01-30T13:26:55.809Z,102947.25
2023-01-30T13:29:31.037Z,102946.22
2023-01-30T13:32:14.290Z,102933.59
2023-01-30T13:38:03.740Z,102936.81
2023-01-30T13:40:36.526Z,102944.91
2023-01-30T13:43:36.532Z,102940.22
2023-01-30T13:46:10.023Z,102950.63
2023-01-30T13:48:50.125Z,102964.38
2023-01-30T13:51:48.896Z,102950.44
2023-01-30T13:54:50.283Z,102960.19
2023-01-30T13:57:27.325Z,102961.25
2023-01-30T14:00:11.428Z,102955.94
2023-01-30T14:03:25.254Z,102958.44
2023-01-30T14:06:10.486Z,102959.69
2023-01-30T14:08:51.729Z,102955.31
2023-01-30T14:15:58.970Z,102951.41
2023-01-30T14:18:31.376Z,102954.91
2023-01-30T14:21:15.710Z,102952.47
2023-01-30T14:23:49.157Z,102974.75
2023-01-30T14:26:19.043Z,102976.06
2023-01-30T14:28:47.710Z,102967.72
2023-01-30T14:31:56.155Z,102978.47
2023-01-30T14:35:01.130Z,102968.69
2023-01-30T14:37:50.216Z,102972.44
2023-01-30T14:41:14.241Z,102937.16
2023-01-30T14:43:52.788Z,102939.78
2023-01-30T14:46:55.031Z,102982.34
2023-01-30T14:49:30.271Z,102962.25
2023-01-30T14:52:00.763Z,102972.50
2023-01-30T14:54:41.315Z,102965.19
2023-01-30T15:00:15.589Z,102968.56
2023-01-30T15:02:45.261Z,102977.91
2023-01-30T15:05:15.434Z,102964.91
2023-01-30T15:07:47.176Z,102969.75
2023-01-30T15:10:29.609Z,102970.00
2023-01-30T15:13:34.812Z,102966.63
2023-01-30T15:16:10.633Z,102969.28
2023-01-30T15:18:53.734Z,102982.19
2023-01-30T15:21:56.676Z,102962.41
2023-01-30T15:24:53.449Z,102977.31
2023-01-30T15:27:23.895Z,102984.84
2023-01-30T15:30:24.264Z,102986.19
2023-01-30T15:33:29.891Z,102994.31
2023-01-30T15:35:59.485Z,102988.25
2023-01-30T15:38:29.867Z,102978.56
2023-01-30T15:41:02.219Z,103001.94
2023-01-30T15:43:45.502Z,103004.88
2023-01-30T15:46:20.564Z,102994.84
2023-01-30T15:48:56.548Z,102993.72
2023-01-30T15:51:31.016Z,103002.09
2023-01-30T15:54:02.554Z,102997.06
2023-01-30T15:56:38.244Z,103013.59
2023-01-30T15:59:07.096Z,103000.88
2023-01-30T16:01:35.934Z,103006.94
2023-01-30T16:04:08.485Z,103006.34
2023-01-30T16:06:38.250Z,103008.75
2023-01-30T16:09:19.594Z,103007.03
2023-01-30T16:11:50.600Z,103003.53
2023-01-30T16:14:20.181Z,103000.88
2023-01-30T16:16:50.216Z,102999.16
2023-01-30T16:19:22.971Z,102997.16
2023-01-30T16:21:51.052Z,103003.31
2023-01-30T16:24:19.406Z,103002.84
2023-01-30T16:26:49.746Z,103002.00
2023-01-30T16:29:18.467Z,102983.78
2023-01-30T16:31:47.404Z,102985.69
2023-01-30T16:34:32.786Z,102990.25
2023-01-30T16:37:04.189Z,103002.09
2023-01-30T16:39:33.239Z,102999.91
2023-01-30T16:42:03.023Z,102991.28
2023-01-30T16:44:31.686Z,102986.44
2023-01-30T16:47:03.960Z,102986.03
2023-01-30T16:49:47.291Z,103010.13
2023-01-30T16:52:18.778Z,103006.09
2023-01-30T16:54:47.970Z,102997.81
2023-01-30T16:57:28.687Z,103013.41
2023-01-30T16:59:56.707Z,103009.25
2023-01-30T17:02:26.561Z,103016.78
2023-01-30T17:04:54.516Z,103012.44
2023-01-30T17:07:36.062Z,103017.22
2023-01-30T17:10:04.207Z,103016.91
2023-01-30T17:12:48.406Z,103009.13
2023-01-30T17:15:36.392Z,103003.25
2023-01-30T17:18:04.585Z,103009.66
2023-01-30T17:20:45.479Z,102997.41
2023-01-30T17:23:13.415Z,103010.59
2023-01-30T17:25:43.012Z,102999.56
2023-01-30T17:28:16.469Z,103019.84
2023-01-30T17:30:44.440Z,103022.56
2023-01-30T17:33:12.376Z,103022.06
2023-01-30T17:35:40.491Z,103022.06
2023-01-30T17:38:08.421Z,103018.03
2023-01-30T17:40:37.604Z,103020.69
2023-01-30T17:43:05.647Z,103012.00
2023-01-30T17:45:34.960Z,103028.84
2023-01-30T17:48:03.002Z,103023.63
2023-01-30T17:50:32.602Z,103006.06
2023-01-30T17:53:00.736Z,103021.75
2023-01-30T17:55:28.716Z,103017.09
2023-01-30T17:57:56.657Z,103022.41
2023-01-30T18:00:25.125Z,103024.53
2023-01-30T18:02:54.635Z,103020.88
2023-01-30T18:05:23.029Z,103021.97
2023-01-30T18:07:51.080Z,103022.16
2023-01-30T18:10:20.722Z,103032.13
2023-01-30T18:12:49.013Z,103031.41
2023-01-30T18:15:17.296Z,103031.41
2023-01-30T18:17:47.432Z,103036.84
2023-01-30T18:20:18.749Z,103031.75
2023-01-30T18:22:46.886Z,103039.06
2023-01-30T18:25:14.921Z,103031.28
2023-01-30T18:27:43.940Z,103036.41
2023-01-30T18:30:15.877Z,103050.50
2023-01-30T18:32:52.553Z,103060.88
2023-01-30T18:35:23.237Z,103055.72
2023-01-30T18:37:51.306Z,103043.25
2023-01-30T18:40:19.951Z,103043.25
2023-01-30T18:42:48.199Z,103035.53
2023-01-30T18:45:16.219Z,103037.44
2023-01-30T18:47:44.244Z,103052.59
2023-01-30T18:50:12.498Z,103054.91
2023-01-30T18:52:41.909Z,103059.00
2023-01-30T18:55:10.423Z,103059.38
2023-01-30T18:57:38.301Z,103053.72
2023-01-30T19:00:07.329Z,103040.38
2023-01-30T19:02:35.312Z,103048.84
2023-01-30T19:05:03.498Z,103044.31
2023-01-30T19:07:31.460Z,103054.56
2023-01-30T19:10:00.857Z,103057.81
2023-01-30T19:12:46.174Z,103044.47
2023-01-30T19:15:14.206Z,103045.13
2023-01-30T19:17:42.088Z,103043.34
2023-01-30T19:20:12.125Z,103049.69
2023-01-30T19:22:40.471Z,103041.38
2023-01-30T19:25:10.572Z,103046.50
2023-01-30T19:27:38.741Z,103030.59
2023-01-30T19:30:08.130Z,103044.34
2023-01-30T19:32:36.178Z,103047.69
2023-01-30T19:35:04.208Z,103043.16
2023-01-30T19:37:32.194Z,103046.56
2023-01-30T19:40:00.221Z,103040.22
2023-01-30T19:42:29.580Z,103034.84
2023-01-30T19:44:57.589Z,103043.75
2023-01-30T19:47:25.558Z,103041.16
2023-01-30T19:49:53.978Z,103041.09
2023-01-30T19:52:22.101Z,103036.88
2023-01-30T19:54:50.014Z,103027.97
2023-01-30T19:57:18.062Z,103033.13
2023-01-30T19:59:47.410Z,103036.22
2023-01-30T20:02:15.451Z,103036.88
2023-01-30T20:04:43.483Z,103035.19
2023-01-30T20:07:11.477Z,103038.78
2023-01-30T20:09:39.461Z,103045.13
2023-01-30T20:12:08.014Z,103046.91
2023-01-30T20:14:35.947Z,103046.84
2023-01-30T20:17:05.308Z,103049.75
2023-01-30T20:19:33.263Z,103049.84
2023-01-30T20:22:06.706Z,103040.25
2023-01-30T20:24:34.760Z,103041.19
2023-01-30T20:27:03.987Z,103033.44
2023-01-30T20:29:32.050Z,103043.84
2023-01-30T20:32:00.025Z,103032.50
2023-01-30T20:34:29.747Z,103044.63
2023-01-30T20:36:59.875Z,103047.19
2023-01-30T20:39:27.847Z,103036.66
2023-01-30T20:41:55.794Z,103035.16
2023-01-30T20:44:24.304Z,103037.03
2023-01-30T20:46:52.468Z,103047.03
2023-01-30T20:49:23.672Z,103058.84
2023-01-30T20:51:53.578Z,103054.72
2023-01-30T20:54:22.611Z,103043.69
2023-01-30T20:56:52.028Z,103044.63
2023-01-30T20:59:20.962Z,103044.97
2023-01-30T21:01:49.000Z,103041.75
2023-01-30T21:04:17.538Z,103046.97
2023-01-30T21:06:47.023Z,103038.31
2023-01-30T21:09:17.824Z,103029.59
2023-01-30T21:11:45.972Z,103026.00
2023-01-30T21:14:14.003Z,103047.19
2023-01-30T21:16:42.062Z,103035.06
2023-01-30T21:19:13.900Z,103041.16
2023-01-30T21:21:43.625Z,103044.66
2023-01-30T21:24:13.377Z,103026.19
2023-01-30T21:26:46.681Z,103044.41
2023-01-30T21:29:15.185Z,103047.97
2023-01-30T21:31:44.386Z,103038.50
2023-01-30T21:34:12.924Z,103046.97
2023-01-30T21:36:40.840Z,103044.56
2023-01-30T21:39:26.105Z,103046.34
2023-01-30T21:42:13.082Z,103032.56
2023-01-30T21:44:41.442Z,103038.66
2023-01-30T21:47:09.371Z,103040.53
2023-01-30T21:49:37.776Z,103040.38
2023-01-30T21:52:05.932Z,103036.94
2023-01-30T21:54:34.039Z,103033.34
2023-01-30T21:57:03.534Z,103034.47
2023-01-30T21:59:31.964Z,103032.56
2023-01-30T22:01:59.873Z,103040.72
2023-01-30T22:04:28.084Z,103047.72
2023-01-30T22:06:56.014Z,103038.31
2023-01-30T22:09:24.261Z,103036.69
2023-01-30T22:11:52.259Z,103043.59
2023-01-30T22:14:22.011Z,103033.09
2023-01-30T22:16:50.058Z,103024.47
2023-01-30T22:19:18.136Z,103025.31
2023-01-30T22:21:46.113Z,103022.94
2023-01-30T22:24:14.128Z,103028.38
2023-01-30T22:26:42.127Z,103029.31
2023-01-30T22:29:10.063Z,103024.28
2023-01-30T22:31:40.642Z,103028.78
2023-01-30T22:34:08.995Z,103028.78
2023-01-30T22:36:37.638Z,103029.72
2023-01-30T22:39:05.804Z,103026.47
2023-01-30T22:41:35.260Z,103029.91
2023-01-30T22:44:04.160Z,103023.06
2023-01-30T22:46:33.304Z,103023.22
2023-01-30T22:49:02.974Z,103035.69
2023-01-30T22:51:31.709Z,103030.56
2023-01-30T22:54:01.073Z,103041.28
2023-01-30T22:56:29.840Z,103039.56
2023-01-30T22:58:58.083Z,103035.28
2023-01-30T23:01:27.239Z,103044.09
2023-01-30T23:03:56.347Z,103046.75
2023-01-30T23:06:25.848Z,103048.44
2023-01-30T23:08:54.558Z,103046.44
2023-01-30T23:11:23.899Z,103046.16
2023-01-30T23:13:53.564Z,103043.16
2023-01-30T23:16:22.352Z,103035.03
2023-01-30T23:18:58.857Z,103028.72
2023-01-30T23:21:28.990Z,103027.72
2023-01-30T23:23:57.943Z,103022.94
2023-01-30T23:26:26.819Z,103031.19
2023-01-30T23:28:56.361Z,103028.13
2023-01-30T23:31:25.451Z,103026.19
2023-01-30T23:33:56.739Z,103026.94
2023-01-30T23:36:24.812Z,103018.16
2023-01-30T23:38:55.223Z,103016.94
2023-01-30T23:41:24.195Z,103025.69
2023-01-30T23:43:52.341Z,103016.94
2023-01-30T23:46:21.445Z,103018.56
2023-01-30T23:48:50.711Z,103015.75
2023-01-30T23:51:19.671Z,103014.88
2023-01-30T23:53:48.053Z,103019.84
2023-01-30T23:56:17.478Z,103019.47
2023-01-30T23:58:45.617Z,103020.84
